Time;durP1;ratioP1;P1;durP2;ratioP2;P2;SDS_P1;SDS_P2;PMS_P1;PMS_P2;Temp;Humidity;BMP_temperature;BMP_pressure;BME280_temperature;BME280_humidity;BME280_pressure;Samples;Min_cycle;Max_cycle;Signal;HPM_P1;HPM_P2
2024/02/03 00:01:05;;;;;;;1.50;0.63;;;10.60;99.90;;;;;;4960487;28;20227;-89
2024/02/03 00:03:31;;;;;;;1.40;1.30;;;10.50;99.90;;;;;;4976254;28;20593;-88
2024/02/03 00:05:56;;;;;;;1.03;0.77;;;10.40;99.90;;;;;;4992841;28;20602;-88
2024/02/03 00:08:22;;;;;;;0.47;0.47;;;10.40;99.90;;;;;;4975587;28;20215;-91
2024/02/03 00:10:48;;;;;;;0.10;0.10;;;10.50;99.90;;;;;;4968193;28;20276;-88
2024/02/03 00:13:14;;;;;;;1.30;1.27;;;10.40;99.90;;;;;;4976795;28;20219;-88
2024/02/03 00:15:42;;;;;;;1.10;1.10;;;10.60;99.90;;;;;;4959409;28;20215;-89
2024/02/03 00:18:08;;;;;;;1.43;0.90;;;10.50;99.90;;;;;;4974432;28;20537;-88
2024/02/03 00:20:34;;;;;;;1.63;0.90;;;10.40;99.90;;;;;;4982254;28;20306;-87
2024/02/03 00:23:00;;;;;;;0.20;0.20;;;10.50;99.90;;;;;;4969469;28;20238;-88
2024/02/03 00:25:26;;;;;;;1.93;1.73;;;10.50;99.90;;;;;;4961527;28;20573;-88
2024/02/03 00:27:52;;;;;;;1.03;1.03;;;10.30;99.90;;;;;;4958124;28;20212;-89
2024/02/03 00:30:18;;;;;;;0.77;0.77;;;10.30;99.90;;;;;;4966667;28;20219;-90
2024/02/03 00:32:44;;;;;;;11.27;2.03;;;10.30;99.90;;;;;;4958300;28;20842;-89
2024/02/03 00:35:12;;;;;;;1.60;0.43;;;10.20;99.90;;;;;;4972339;28;20229;-89
2024/02/03 00:37:38;;;;;;;0.67;0.67;;;10.20;99.90;;;;;;4974171;28;20218;-88
2024/02/03 00:40:05;;;;;;;1.27;0.87;;;10.40;99.90;;;;;;4964631;28;20224;-88
2024/02/03 00:42:30;;;;;;;0.57;0.57;;;10.40;99.90;;;;;;4955190;28;20197;-89
2024/02/03 00:44:56;;;;;;;1.83;1.73;;;10.40;99.90;;;;;;4949865;28;20625;-89
2024/02/03 00:47:22;;;;;;;0.67;0.67;;;10.50;99.90;;;;;;4971044;28;20757;-88
2024/02/03 00:49:48;;;;;;;1.30;1.20;;;10.40;99.90;;;;;;4958351;28;20584;-88
2024/02/03 00:52:14;;;;;;;0.20;0.20;;;10.50;99.90;;;;;;4959578;28;21339;-89
2024/02/03 00:54:39;;;;;;;1.30;1.30;;;10.50;99.90;;;;;;4957973;28;20769;-90
2024/02/03 00:57:07;;;;;;;0.20;0.20;;;10.50;99.90;;;;;;4959758;28;20188;-88
2024/02/03 00:59:33;;;;;;;1.47;1.40;;;10.50;99.90;;;;;;4958104;28;20226;-88
2024/02/03 01:01:59;;;;;;;0.37;0.37;;;10.50;99.90;;;;;;4959147;28;20215;-87
2024/02/03 01:04:25;;;;;;;0.40;0.40;;;10.50;99.90;;;;;;4958281;28;20290;-89
2024/02/03 01:06:54;;;;;;;1.33;1.23;;;10.40;99.90;;;;;;4959475;28;20218;-88
2024/02/03 01:09:24;;;;;;;0.83;0.83;;;10.40;99.90;;;;;;4976839;28;20625;-89
2024/02/03 01:11:50;;;;;;;11.77;1.83;;;10.60;99.90;;;;;;4974927;28;20218;-89
2024/02/03 01:14:15;;;;;;;0.20;0.20;;;10.60;99.90;;;;;;4990914;28;20223;-89
2024/02/03 01:16:44;;;;;;;0.20;0.20;;;10.40;99.90;;;;;;4957879;28;20306;-89
2024/02/03 01:19:09;;;;;;;0.40;0.40;;;10.60;99.90;;;;;;4959320;28;20309;-89
2024/02/03 01:21:35;;;;;;;1.67;1.57;;;10.60;99.90;;;;;;4991165;28;20274;-90
2024/02/03 01:24:01;;;;;;;5.40;1.10;;;10.50;99.90;;;;;;4958802;28;20270;-89
2024/02/03 01:26:27;;;;;;;0.93;0.43;;;10.50;99.90;;;;;;4958631;28;20256;-89
2024/02/03 01:28:53;;;;;;;3.43;1.10;;;10.70;99.90;;;;;;4967355;28;20692;-87
2024/02/03 01:31:19;;;;;;;0.70;0.53;;;10.70;99.90;;;;;;4959833;28;20265;-89
2024/02/03 01:33:44;;;;;;;3.10;0.83;;;10.60;99.90;;;;;;4974723;28;20287;-88
2024/02/03 01:36:10;;;;;;;0.53;0.53;;;10.50;99.90;;;;;;4958354;28;20211;-89
2024/02/03 01:38:36;;;;;;;0.57;0.57;;;10.50;99.90;;;;;;4958667;28;21044;-89
2024/02/03 01:41:02;;;;;;;0.93;0.53;;;10.50;99.90;;;;;;4959216;28;20656;-87
2024/02/03 01:43:28;;;;;;;1.17;0.97;;;10.50;99.90;;;;;;4990975;28;20215;-88
2024/02/03 01:45:54;;;;;;;1.07;0.73;;;10.40;99.90;;;;;;4958588;28;20877;-89
2024/02/03 01:48:19;;;;;;;0.67;0.60;;;10.50;99.90;;;;;;4957823;28;20275;-89
2024/02/03 01:50:51;;;;;;;0.70;0.40;;;10.20;99.90;;;;;;4958109;28;20220;-89
2024/02/03 01:53:18;;;;;;;0.47;0.47;;;10.50;99.90;;;;;;4990107;28;20631;-89
2024/02/03 01:55:45;;;;;;;3.83;0.63;;;10.30;99.90;;;;;;4984945;28;20249;-89
2024/02/03 01:58:11;;;;;;;0.77;0.47;;;10.30;99.90;;;;;;4958453;28;20238;-88
2024/02/03 02:00:37;;;;;;;0.60;0.60;;;10.30;99.90;;;;;;4977475;28;20219;-88
2024/02/03 02:03:03;;;;;;;3.13;1.27;;;10.30;99.90;;;;;;4979374;28;20274;-88
2024/02/03 02:05:28;;;;;;;0.20;0.20;;;10.20;99.90;;;;;;4994604;28;20226;-88
2024/02/03 02:07:55;;;;;;;1.17;1.17;;;10.30;99.90;;;;;;4961974;28;20250;-88
2024/02/03 02:10:21;;;;;;;2.70;0.67;;;10.10;99.90;;;;;;4978467;28;20207;-88
2024/02/03 02:12:47;;;;;;;0.73;0.73;;;10.30;99.90;;;;;;4962513;28;20329;-90
2024/02/03 02:15:13;;;;;;;0.60;0.60;;;10.10;99.90;;;;;;4979395;28;20253;-90
2024/02/03 02:17:39;;;;;;;0.20;0.20;;;10.30;99.90;;;;;;4961797;28;20569;-88
2024/02/03 02:20:09;;;;;;;0.33;0.33;;;10.30;99.90;;;;;;4971575;28;20219;-88
2024/02/03 02:22:36;;;;;;;0.73;0.73;;;10.20;99.90;;;;;;4994270;28;20692;-88
2024/02/03 02:25:05;;;;;;;0.57;0.30;;;10.10;99.90;;;;;;4989130;28;20203;-91
2024/02/03 02:27:32;;;;;;;1.37;1.27;;;10.00;99.90;;;;;;4977881;28;20203;-89
2024/02/03 02:29:57;;;;;;;0.40;0.40;;;10.00;99.90;;;;;;4977955;28;20594;-88
2024/02/03 02:32:24;;;;;;;0.40;0.40;;;10.10;99.90;;;;;;4960737;28;21155;-89
2024/02/03 02:34:49;;;;;;;0.57;0.57;;;10.00;99.90;;;;;;4962033;28;21095;-90
2024/02/03 02:37:15;;;;;;;0.20;0.20;;;10.00;99.90;;;;;;4971320;28;20310;-89
2024/02/03 02:39:41;;;;;;;0.67;0.37;;;9.80;99.90;;;;;;4961780;28;20230;-89
2024/02/03 02:42:07;;;;;;;0.33;0.33;;;9.80;99.90;;;;;;4991787;28;20185;-89
2024/02/03 02:44:33;;;;;;;1.17;1.03;;;10.00;99.90;;;;;;4968971;28;20750;-88
2024/02/03 02:46:59;;;;;;;0.50;0.50;;;9.90;99.90;;;;;;4969852;28;20712;-89
2024/02/03 02:49:25;;;;;;;0.50;0.50;;;9.80;99.90;;;;;;4987076;28;20215;-89
2024/02/03 02:51:51;;;;;;;1.50;1.40;;;9.80;99.90;;;;;;4979620;28;20219;-88
2024/02/03 02:54:17;;;;;;;0.63;0.63;;;9.90;99.90;;;;;;4979897;28;20270;-88
2024/02/03 02:56:42;;;;;;;4.10;0.80;;;9.90;99.90;;;;;;4977391;28;20257;-88
2024/02/03 02:59:08;;;;;;;0.97;0.80;;;9.80;99.90;;;;;;4972918;28;20610;-89
2024/02/03 03:01:34;;;;;;;0.40;0.40;;;9.90;99.90;;;;;;4977588;28;20207;-89
2024/02/03 03:04:00;;;;;;;0.30;0.30;;;9.70;99.90;;;;;;4974108;28;20212;-90
2024/02/03 03:06:26;;;;;;;0.53;0.53;;;9.70;99.90;;;;;;4966106;28;20212;-93
2024/02/03 03:08:52;;;;;;;1.20;0.50;;;9.70;99.90;;;;;;4994204;28;20227;-88
2024/02/03 03:11:18;;;;;;;3.10;0.60;;;9.70;99.90;;;;;;4992624;28;20226;-89
2024/02/03 03:13:46;;;;;;;13.87;1.53;;;9.70;99.90;;;;;;4993797;28;21035;-90
2024/02/03 03:16:12;;;;;;;0.43;0.43;;;9.80;99.90;;;;;;4977169;28;20317;-88
2024/02/03 03:18:38;;;;;;;0.63;0.60;;;9.80;99.90;;;;;;4993765;28;20242;-90
2024/02/03 03:21:04;;;;;;;0.30;0.30;;;9.80;99.90;;;;;;4977654;28;20346;-88
2024/02/03 03:23:30;;;;;;;0.47;0.47;;;9.60;99.90;;;;;;4992502;28;20650;-88
2024/02/03 03:25:56;;;;;;;0.50;0.50;;;9.60;99.90;;;;;;4993513;28;20231;-87
2024/02/03 03:28:22;;;;;;;0.20;0.20;;;9.60;99.90;;;;;;4986183;28;20218;-89
2024/02/03 03:30:48;;;;;;;0.77;0.77;;;9.60;99.90;;;;;;4976993;28;20198;-89
2024/02/03 03:33:14;;;;;;;0.43;0.43;;;9.60;99.90;;;;;;4994016;28;20183;-88
2024/02/03 03:35:40;;;;;;;0.40;0.40;;;9.70;99.90;;;;;;4993079;28;20249;-89
2024/02/03 03:38:06;;;;;;;1.20;0.60;;;9.60;99.90;;;;;;4992438;28;20207;-90
2024/02/03 03:40:35;;;;;;;0.70;0.30;;;9.60;99.90;;;;;;4992242;28;20208;-89
2024/02/03 03:43:05;;;;;;;6.43;1.43;;;9.60;99.90;;;;;;4992364;28;21261;-89
2024/02/03 03:45:31;;;;;;;1.17;0.97;;;9.70;99.90;;;;;;4988073;28;20236;-89
2024/02/03 03:47:58;;;;;;;0.60;0.60;;;9.70;99.90;;;;;;4989732;28;20630;-92
2024/02/03 03:50:24;;;;;;;0.10;0.10;;;9.70;99.90;;;;;;4989134;28;20760;-89
2024/02/03 03:52:50;;;;;;;3.03;0.93;;;9.90;99.90;;;;;;4990172;28;20319;-89
2024/02/03 03:55:16;;;;;;;1.30;0.77;;;9.90;99.90;;;;;;4973499;28;20224;-90
2024/02/03 03:57:42;;;;;;;0.67;0.43;;;9.70;99.90;;;;;;4974094;28;20725;-89
2024/02/03 04:00:10;;;;;;;0.80;0.67;;;9.70;99.90;;;;;;4989788;28;20192;-88
2024/02/03 04:02:39;;;;;;;5.50;1.57;;;9.70;99.90;;;;;;4983691;28;20208;-89
2024/02/03 04:05:08;;;;;;;12.23;2.67;;;9.80;99.90;;;;;;4989748;28;20644;-91
2024/02/03 04:07:34;;;;;;;0.10;0.10;;;9.70;99.90;;;;;;4989837;28;20219;-88
2024/02/03 04:10:00;;;;;;;1.47;1.07;;;9.80;99.90;;;;;;4964758;28;20220;-88
2024/02/03 04:12:25;;;;;;;5.20;0.90;;;9.80;99.90;;;;;;4975162;28;20247;-91
2024/02/03 04:14:51;;;;;;;3.67;0.47;;;9.60;99.90;;;;;;4974074;28;20223;-88
2024/02/03 04:17:18;;;;;;;0.47;0.27;;;9.60;99.90;;;;;;4961075;28;20216;-90
2024/02/03 04:19:43;;;;;;;3.37;0.30;;;9.60;99.90;;;;;;4968617;28;20220;-90
2024/02/03 04:22:16;;;;;;;0.30;0.30;;;9.60;99.90;;;;;;4958437;28;21023;-89
2024/02/03 04:24:42;;;;;;;2.07;1.73;;;9.70;99.90;;;;;;4965532;28;20543;-89
2024/02/03 04:27:07;;;;;;;1.87;1.47;;;9.50;99.90;;;;;;4951243;28;20191;-89
2024/02/03 04:29:33;;;;;;;0.40;0.40;;;9.50;99.90;;;;;;4950846;28;20215;-88
2024/02/03 04:31:59;;;;;;;0.20;0.20;;;9.60;99.90;;;;;;4950702;28;20224;-89
2024/02/03 04:34:25;;;;;;;0.23;0.23;;;9.50;99.90;;;;;;4946499;28;20838;-87
2024/02/03 04:36:50;;;;;;;0.60;0.60;;;9.40;99.90;;;;;;4940868;28;20271;-88
2024/02/03 04:39:16;;;;;;;0.67;0.67;;;9.60;99.90;;;;;;4950948;28;20238;-88
2024/02/03 04:41:42;;;;;;;1.83;0.93;;;9.60;99.90;;;;;;4980576;28;20270;-91
2024/02/03 04:44:08;;;;;;;1.53;1.30;;;9.60;99.90;;;;;;4963124;28;20266;-88
2024/02/03 04:46:34;;;;;;;0.30;0.30;;;9.40;99.90;;;;;;4965112;28;20235;-89
2024/02/03 04:48:59;;;;;;;16.23;1.73;;;9.40;99.90;;;;;;4963433;28;20243;-89
2024/02/03 04:51:25;;;;;;;0.47;0.47;;;9.50;99.90;;;;;;4965111;28;20238;-88
2024/02/03 04:53:53;;;;;;;2.63;1.20;;;9.60;99.90;;;;;;4974316;28;20249;-88
2024/02/03 04:56:19;;;;;;;1.60;1.10;;;9.50;99.90;;;;;;4983013;28;20242;-88
2024/02/03 04:58:45;;;;;;;0.80;0.80;;;9.60;99.90;;;;;;4975610;28;20219;-87
2024/02/03 05:01:11;;;;;;;0.20;0.20;;;9.50;99.90;;;;;;4966134;28;20234;-90
2024/02/03 05:03:37;;;;;;;1.80;0.63;;;9.50;99.90;;;;;;4975619;28;20241;-88
2024/02/03 05:06:04;;;;;;;0.40;0.40;;;9.30;99.90;;;;;;4975885;28;20217;-88
2024/02/03 05:08:30;;;;;;;0.37;0.37;;;9.40;99.90;;;;;;5000048;28;20226;-88
2024/02/03 05:10:58;;;;;;;0.57;0.57;;;9.60;99.90;;;;;;4970717;28;20261;-88
2024/02/03 05:13:25;;;;;;;0.87;0.87;;;9.50;99.90;;;;;;4991439;28;20658;-89
2024/02/03 05:15:52;;;;;;;1.90;1.80;;;9.50;99.90;;;;;;5008703;28;20230;-89
2024/02/03 05:18:21;;;;;;;0.40;0.40;;;9.40;99.90;;;;;;4992263;28;20183;-91
2024/02/03 05:20:48;;;;;;;0.40;0.40;;;9.50;99.90;;;;;;4990841;28;20254;-88
2024/02/03 05:23:14;;;;;;;1.97;0.70;;;9.50;99.90;;;;;;4991270;28;20226;-88
2024/02/03 05:25:40;;;;;;;2.63;0.43;;;9.50;99.90;;;;;;4973807;28;20712;-89
2024/02/03 05:28:06;;;;;;;1.50;1.07;;;9.50;99.90;;;;;;4976095;28;20223;-87
2024/02/03 05:30:32;;;;;;;1.00;0.60;;;9.50;99.90;;;;;;4974888;28;20282;-87
2024/02/03 05:32:58;;;;;;;0.83;0.83;;;9.60;99.90;;;;;;4990715;28;20191;-87
2024/02/03 05:35:24;;;;;;;0.40;0.40;;;9.70;99.90;;;;;;4974596;28;20311;-88
2024/02/03 05:37:50;;;;;;;0.20;0.20;;;9.60;99.90;;;;;;4974407;28;20211;-89
2024/02/03 05:40:15;;;;;;;0.73;0.73;;;9.40;99.90;;;;;;4974499;28;20269;-87
2024/02/03 05:42:41;;;;;;;0.63;0.63;;;9.70;99.90;;;;;;4975200;28;20191;-89
2024/02/03 05:45:08;;;;;;;6.33;0.60;;;9.50;99.90;;;;;;4985349;28;20241;-88
2024/02/03 05:47:36;;;;;;;0.10;0.10;;;9.60;99.90;;;;;;4975211;28;20234;-89
2024/02/03 05:50:02;;;;;;;5.30;1.10;;;9.60;99.90;;;;;;4982367;28;20795;-90
2024/02/03 05:52:28;;;;;;;0.37;0.37;;;9.50;99.90;;;;;;4975058;28;20333;-88
2024/02/03 05:54:54;;;;;;;0.17;0.17;;;9.60;99.90;;;;;;4974523;28;20242;-88
2024/02/03 05:57:20;;;;;;;0.20;0.20;;;9.50;99.90;;;;;;4983652;28;20250;-88
2024/02/03 05:59:46;;;;;;;7.10;1.50;;;9.40;99.90;;;;;;4974431;28;20225;-90
2024/02/03 06:02:12;;;;;;;0.97;0.97;;;9.40;99.90;;;;;;4974352;28;20218;-89
2024/02/03 06:04:39;;;;;;;0.20;0.20;;;9.60;99.90;;;;;;4975218;28;20330;-89
2024/02/03 06:07:05;;;;;;;0.60;0.60;;;9.30;99.90;;;;;;4989747;28;20238;-88
2024/02/03 06:09:31;;;;;;;1.60;0.83;;;9.50;99.90;;;;;;4974088;28;20245;-89
2024/02/03 06:11:57;;;;;;;1.13;0.47;;;9.50;99.90;;;;;;4974848;28;20778;-89
2024/02/03 06:14:23;;;;;;;0.47;0.37;;;9.30;99.90;;;;;;4974916;28;20290;-87
2024/02/03 06:16:49;;;;;;;0.53;0.53;;;9.30;99.90;;;;;;4992188;28;20230;-88
2024/02/03 06:19:16;;;;;;;0.53;0.53;;;9.40;99.90;;;;;;4984001;28;20212;-90
2024/02/03 06:21:41;;;;;;;0.33;0.33;;;9.20;99.90;;;;;;4974783;28;20586;-88
2024/02/03 06:24:07;;;;;;;2.07;1.37;;;9.40;99.90;;;;;;4975692;28;20183;-88
2024/02/03 06:26:33;;;;;;;0.40;0.40;;;9.30;99.90;;;;;;4975014;28;20212;-89
2024/02/03 06:28:59;;;;;;;0.47;0.47;;;9.30;99.90;;;;;;4999042;28;20773;-88
2024/02/03 06:31:25;;;;;;;2.93;0.73;;;9.30;99.90;;;;;;4974643;28;20222;-90
2024/02/03 06:33:50;;;;;;;0.40;0.40;;;9.50;99.90;;;;;;4973952;28;20211;-87
2024/02/03 06:36:16;;;;;;;0.33;0.33;;;9.40;99.90;;;;;;4975019;28;20285;-88
2024/02/03 06:38:42;;;;;;;0.60;0.60;;;9.60;99.90;;;;;;4974068;28;20212;-89
2024/02/03 06:41:16;;;;;;;0.97;0.67;;;9.50;99.90;;;;;;4974108;28;20211;-88
2024/02/03 06:43:42;;;;;;;1.00;0.80;;;9.50;99.90;;;;;;4998646;28;20234;-88
2024/02/03 06:46:08;;;;;;;1.10;0.57;;;9.50;99.90;;;;;;4974909;28;20238;-89
2024/02/03 06:48:34;;;;;;;3.80;0.93;;;9.60;99.90;;;;;;4993883;28;20184;-89
2024/02/03 06:51:00;;;;;;;5.77;1.33;;;9.60;99.90;;;;;;4978082;28;20184;-90
2024/02/03 06:53:26;;;;;;;2.53;0.70;;;9.60;99.90;;;;;;4978604;28;20253;-88
2024/02/03 06:55:51;;;;;;;1.57;0.97;;;9.40;99.90;;;;;;4986900;28;20249;-87
2024/02/03 06:58:17;;;;;;;3.07;1.00;;;9.50;99.90;;;;;;4978245;28;20211;-88
2024/02/03 07:00:43;;;;;;;1.50;0.43;;;9.50;99.90;;;;;;4994480;28;20466;-88
2024/02/03 07:03:10;;;;;;;0.90;0.77;;;9.30;99.90;;;;;;4978417;28;20229;-87
2024/02/03 07:05:38;;;;;;;0.50;0.40;;;9.40;99.90;;;;;;5011057;28;20216;-88
2024/02/03 07:08:04;;;;;;;8.37;0.70;;;9.30;99.90;;;;;;4989185;28;20223;-88
2024/02/03 07:10:29;;;;;;;0.63;0.63;;;9.30;99.90;;;;;;4977442;28;20215;-86
2024/02/03 07:12:58;;;;;;;1.93;0.87;;;9.20;99.90;;;;;;4976837;28;20212;-89
2024/02/03 07:15:24;;;;;;;11.40;1.30;;;9.20;99.90;;;;;;4979784;28;20211;-88
2024/02/03 07:17:49;;;;;;;0.20;0.20;;;9.30;99.90;;;;;;4978281;28;20237;-88
2024/02/03 07:20:15;;;;;;;0.30;0.30;;;9.30;99.90;;;;;;4987158;28;20209;-88
2024/02/03 07:22:41;;;;;;;1.30;1.20;;;9.20;99.90;;;;;;4993930;28;20220;-89
2024/02/03 07:25:07;;;;;;;2.90;0.83;;;9.40;99.90;;;;;;4977220;28;20230;-86
2024/02/03 07:27:33;;;;;;;0.50;0.37;;;9.20;99.90;;;;;;4993083;28;20215;-88
2024/02/03 07:29:59;;;;;;;1.40;1.33;;;9.20;99.90;;;;;;4987407;28;20226;-92
2024/02/03 07:32:24;;;;;;;2.40;2.23;;;9.30;99.90;;;;;;4977083;28;20238;-89
2024/02/03 07:34:50;;;;;;;1.53;0.57;;;9.30;99.90;;;;;;4977445;28;20227;-90
2024/02/03 07:37:16;;;;;;;0.40;0.40;;;9.30;99.90;;;;;;4977257;28;20218;-89
2024/02/03 07:39:42;;;;;;;0.43;0.43;;;9.40;99.90;;;;;;4978982;28;20191;-89
2024/02/03 07:42:08;;;;;;;0.20;0.20;;;9.60;99.90;;;;;;4978606;28;20249;-89
2024/02/03 07:44:36;;;;;;;0.50;0.50;;;9.70;99.90;;;;;;4977280;28;20219;-89
2024/02/03 07:47:02;;;;;;;3.00;1.20;;;9.60;99.90;;;;;;4976209;28;20231;-89
2024/02/03 07:49:28;;;;;;;0.40;0.40;;;9.60;99.90;;;;;;4975143;28;20219;-91
2024/02/03 07:51:54;;;;;;;0.23;0.23;;;9.40;99.90;;;;;;4977138;28;20215;-89
2024/02/03 07:54:19;;;;;;;5.90;2.87;;;9.60;99.90;;;;;;4994692;28;20187;-88
2024/02/03 07:56:45;;;;;;;0.20;0.20;;;9.50;99.90;;;;;;4978073;28;20244;-90
2024/02/03 07:59:14;;;;;;;0.30;0.30;;;9.60;99.90;;;;;;4977594;28;20211;-88
2024/02/03 08:01:40;;;;;;;0.20;0.20;;;9.60;99.90;;;;;;4977008;28;20222;-88
2024/02/03 08:04:07;;;;;;;3.03;0.80;;;9.80;99.90;;;;;;4992758;28;20285;-89
2024/02/03 08:06:32;;;;;;;0.80;0.80;;;9.70;99.90;;;;;;4953639;28;20230;-89
2024/02/03 08:08:58;;;;;;;0.77;0.43;;;9.80;99.90;;;;;;4978465;28;20246;-88
2024/02/03 08:11:24;;;;;;;1.30;1.23;;;9.70;99.90;;;;;;4978050;28;20306;-89
2024/02/03 08:13:50;;;;;;;2.70;1.93;;;9.70;99.90;;;;;;4975606;28;20279;-88
2024/02/03 08:16:16;;;;;;;0.93;0.93;;;9.70;99.90;;;;;;4976449;28;20237;-88
2024/02/03 08:18:42;;;;;;;0.27;0.27;;;9.70;99.90;;;;;;4985924;28;20241;-88
2024/02/03 08:21:12;;;;;;;3.67;3.33;;;10.00;99.90;;;;;;5006951;28;20696;-87
2024/02/03 08:23:38;;;;;;;2.37;1.57;;;9.80;99.90;;;;;;4987039;28;20572;-89
2024/02/03 08:26:07;;;;;;;0.27;0.27;;;9.90;99.90;;;;;;4977953;28;20219;-89
2024/02/03 08:28:33;;;;;;;0.33;0.30;;;9.90;99.90;;;;;;4993075;28;20219;-90
2024/02/03 08:30:59;;;;;;;5.90;0.57;;;9.90;99.90;;;;;;4981192;28;20269;-88
2024/02/03 08:33:28;;;;;;;3.60;0.30;;;9.90;99.90;;;;;;4986743;28;20195;-89
2024/02/03 08:35:53;;;;;;;1.60;1.50;;;10.00;99.90;;;;;;4976204;28;20229;-90
2024/02/03 08:38:19;;;;;;;0.50;0.50;;;10.10;99.90;;;;;;4976246;28;20219;-90
2024/02/03 08:40:45;;;;;;;0.10;0.10;;;10.00;99.90;;;;;;4976462;28;20258;-90
2024/02/03 08:43:11;;;;;;;1.00;0.77;;;10.20;99.90;;;;;;4976540;28;20218;-90
2024/02/03 08:45:37;;;;;;;0.40;0.40;;;10.00;99.90;;;;;;4966170;28;20644;-89
2024/02/03 08:48:03;;;;;;;3.40;1.20;;;10.20;99.90;;;;;;4976409;28;20298;-90
2024/02/03 08:50:29;;;;;;;3.10;0.63;;;10.10;99.90;;;;;;4975782;28;20242;-89
2024/02/03 08:52:55;;;;;;;3.93;1.17;;;10.10;99.90;;;;;;4975104;28;20702;-89
2024/02/03 08:55:21;;;;;;;0.20;0.20;;;10.10;99.90;;;;;;4970203;28;20568;-89
2024/02/03 08:57:46;;;;;;;0.80;0.80;;;10.10;99.90;;;;;;4975596;28;20275;-90
2024/02/03 09:00:13;;;;;;;0.23;0.23;;;10.00;99.90;;;;;;4975909;28;20183;-89
2024/02/03 09:02:39;;;;;;;0.47;0.47;;;10.00;99.90;;;;;;4991748;28;20715;-89
2024/02/03 09:05:05;;;;;;;2.23;0.60;;;10.00;99.90;;;;;;4992057;28;20211;-89
2024/02/03 09:07:34;;;;;;;0.30;0.30;;;10.00;99.90;;;;;;5001675;28;20215;-90
2024/02/03 09:10:03;;;;;;;0.30;0.30;;;10.00;99.90;;;;;;4990198;28;20211;-90
2024/02/03 09:12:29;;;;;;;2.93;2.73;;;10.00;99.90;;;;;;4977263;28;20294;-89
2024/02/03 09:14:55;;;;;;;0.67;0.43;;;10.10;99.90;;;;;;4993153;28;20329;-89
2024/02/03 09:17:20;;;;;;;0.83;0.83;;;10.20;99.90;;;;;;4990536;28;20303;-89
2024/02/03 09:19:49;;;;;;;0.57;0.30;;;10.20;99.90;;;;;;4992399;28;20211;-92
2024/02/03 09:22:15;;;;;;;3.57;1.23;;;10.40;99.90;;;;;;4951513;28;20243;-90
2024/02/03 09:24:41;;;;;;;3.03;1.00;;;10.30;99.90;;;;;;4992634;28;20191;-89
2024/02/03 09:27:07;;;;;;;0.97;0.60;;;10.40;99.90;;;;;;4975388;28;20208;-89
2024/02/03 09:29:33;;;;;;;7.47;0.83;;;10.50;99.90;;;;;;4975534;28;20561;-89
2024/02/03 09:32:00;;;;;;;3.40;1.73;;;10.40;99.90;;;;;;4982415;28;20218;-89
2024/02/03 09:34:26;;;;;;;0.30;0.30;;;10.50;99.90;;;;;;4992213;28;20215;-89
2024/02/03 09:36:52;;;;;;;1.37;1.07;;;10.50;99.90;;;;;;4975526;28;20218;-89
2024/02/03 09:39:18;;;;;;;0.97;0.60;;;10.60;99.90;;;;;;4976286;28;20199;-90
2024/02/03 09:41:44;;;;;;;0.50;0.43;;;10.60;99.90;;;;;;4975751;28;20254;-89
2024/02/03 09:44:11;;;;;;;0.50;0.50;;;10.70;99.90;;;;;;4992027;28;20302;-90
2024/02/03 09:46:39;;;;;;;1.00;0.93;;;10.90;99.90;;;;;;4975519;28;20238;-89
2024/02/03 09:49:05;;;;;;;8.67;1.07;;;10.90;99.90;;;;;;4992231;28;20230;-89
2024/02/03 09:51:33;;;;;;;2.90;0.50;;;10.90;99.90;;;;;;4975509;28;20656;-90
2024/02/03 09:54:00;;;;;;;2.93;0.70;;;11.30;99.90;;;;;;5001364;28;20175;-90
2024/02/03 09:56:26;;;;;;;4.30;1.00;;;11.50;99.90;;;;;;4991320;28;20707;-91
2024/02/03 09:58:52;;;;;;;4.70;0.50;;;11.50;99.90;;;;;;4984821;28;20687;-90
2024/02/03 10:01:18;;;;;;;3.87;1.23;;;11.30;99.90;;;;;;4984263;28;20215;-90
2024/02/03 10:03:46;;;;;;;3.37;0.87;;;11.20;99.90;;;;;;4975936;28;20196;-90
2024/02/03 10:06:13;;;;;;;4.03;3.60;;;11.10;99.90;;;;;;4990763;28;20183;-89
2024/02/03 10:08:49;;;;;;;0.10;0.10;;;11.00;99.90;;;;;;4983537;28;20235;-89
2024/02/03 10:11:16;;;;;;;0.43;0.43;;;11.10;99.90;;;;;;4976030;28;20301;-92
2024/02/03 10:13:42;;;;;;;1.07;0.53;;;11.00;99.90;;;;;;4974923;28;20207;-88
2024/02/03 10:16:07;;;;;;;2.73;2.53;;;11.10;99.90;;;;;;4975037;28;20238;-88
2024/02/03 10:18:34;;;;;;;0.13;0.13;;;11.20;99.90;;;;;;4976070;28;20202;-89
2024/02/03 10:21:03;;;;;;;0.57;0.57;;;11.20;99.90;;;;;;4991946;28;20190;-89
2024/02/03 10:23:29;;;;;;;2.30;1.20;;;11.10;99.90;;;;;;4987120;28;20211;-90
2024/02/03 10:25:59;;;;;;;0.40;0.40;;;11.10;99.90;;;;;;4979748;28;20234;-90
2024/02/03 10:28:26;;;;;;;2.73;0.57;;;11.20;99.90;;;;;;4995725;28;20318;-92
2024/02/03 10:30:55;;;;;;;0.83;0.83;;;11.10;99.90;;;;;;4996490;28;20219;-91
2024/02/03 10:33:21;;;;;;;7.60;1.83;;;11.10;99.90;;;;;;4980980;28;20543;-91
2024/02/03 10:35:47;;;;;;;3.97;0.97;;;11.00;99.90;;;;;;4994456;28;20230;-89
2024/02/03 10:38:13;;;;;;;4.73;1.13;;;11.10;99.90;;;;;;4986158;28;20215;-90
2024/02/03 10:40:39;;;;;;;0.80;0.43;;;11.10;99.90;;;;;;4978486;28;20775;-89
2024/02/03 10:43:18;;;;;;;1.80;1.50;;;10.90;99.90;;;;;;4994038;28;20258;-88
2024/02/03 10:45:47;;;;;;;0.27;0.27;;;10.90;99.90;;;;;;4993160;28;20226;-88
2024/02/03 10:48:18;;;;;;;5.10;0.30;;;11.00;99.90;;;;;;5003198;28;20180;-88
2024/02/03 10:50:49;;;;;;;1.40;1.30;;;10.80;99.90;;;;;;4993574;28;20640;-87
2024/02/03 10:53:31;;;;;;;0.13;0.13;;;10.90;99.90;;;;;;4994203;28;20222;-88
2024/02/03 10:56:03;;;;;;;0.30;0.30;;;10.70;99.90;;;;;;4994291;28;21076;-87
2024/02/03 10:58:30;;;;;;;0.50;0.50;;;10.70;99.90;;;;;;5011179;28;20235;-89
2024/02/03 11:00:57;;;;;;;0.20;0.20;;;10.90;99.90;;;;;;4992985;28;20218;-89
2024/02/03 11:03:23;;;;;;;3.10;1.10;;;10.90;99.90;;;;;;4988399;28;20191;-88
2024/02/03 11:05:53;;;;;;;1.87;0.93;;;10.90;99.90;;;;;;4980345;28;20206;-89
2024/02/03 11:08:20;;;;;;;1.07;0.57;;;11.20;99.90;;;;;;4977906;28;20703;-89
2024/02/03 11:10:50;;;;;;;3.40;0.97;;;11.10;99.90;;;;;;5010995;28;20253;-89
2024/02/03 11:13:23;;;;;;;1.50;1.30;;;11.40;99.90;;;;;;4995197;28;20219;-90
2024/02/03 11:15:59;;;;;;;8.03;2.27;;;11.20;99.90;;;;;;4979091;28;20349;-90
2024/02/03 11:18:26;;;;;;;5.33;0.57;;;11.30;99.90;;;;;;4984582;28;20645;-89
2024/02/03 11:21:08;;;;;;;0.60;0.47;;;11.30;99.90;;;;;;4977577;28;20212;-89
2024/02/03 11:23:35;;;;;;;4.13;0.40;;;11.30;99.90;;;;;;4985824;28;20288;-88
2024/02/03 11:26:01;;;;;;;0.20;0.20;;;11.40;99.90;;;;;;4978653;28;20723;-88
2024/02/03 11:28:31;;;;;;;1.90;0.60;;;11.30;99.90;;;;;;4993822;28;20703;-88
2024/02/03 11:31:05;;;;;;;1.80;1.43;;;11.20;99.90;;;;;;4977806;28;20344;-88
2024/02/03 11:33:45;;;;;;;1.53;1.13;;;11.40;99.90;;;;;;4977216;28;20666;-89
2024/02/03 11:36:14;;;;;;;0.77;0.77;;;11.30;99.90;;;;;;4994447;28;20223;-91
2024/02/03 11:38:47;;;;;;;6.90;1.93;;;11.20;99.90;;;;;;4959445;28;20246;-92
2024/02/03 11:41:14;;;;;;;6.33;1.13;;;11.10;99.90;;;;;;4977453;28;20561;-92
2024/02/03 11:43:40;;;;;;;4.10;0.77;;;11.00;99.90;;;;;;4994292;28;20293;-90
2024/02/03 11:46:09;;;;;;;6.10;1.67;;;11.10;99.90;;;;;;4977034;28;20689;-91
2024/02/03 11:48:39;;;;;;;5.77;1.23;;;11.00;99.90;;;;;;4984535;28;20556;-90
2024/02/03 11:51:10;;;;;;;12.53;0.67;;;10.80;99.90;;;;;;4977966;28;20211;-90
2024/02/03 11:53:36;;;;;;;0.40;0.40;;;10.90;99.90;;;;;;4990697;28;20235;-89
2024/02/03 11:56:02;;;;;;;0.30;0.30;;;11.10;99.90;;;;;;5002148;28;20227;-90
2024/02/03 11:58:27;;;;;;;9.93;1.23;;;11.00;99.90;;;;;;4993226;28;20219;-89
2024/02/03 12:01:15;;;;;;;0.83;0.67;;;11.10;99.90;;;;;;4976826;28;20227;-90
2024/02/03 12:03:41;;;;;;;8.23;0.97;;;11.00;99.90;;;;;;4992484;28;21333;-90
2024/02/03 12:06:07;;;;;;;2.23;1.30;;;11.10;99.90;;;;;;4976168;28;20184;-90
2024/02/03 12:08:34;;;;;;;0.37;0.37;;;11.00;99.90;;;;;;4991946;28;20584;-90
2024/02/03 12:11:00;;;;;;;0.60;0.43;;;11.00;99.90;;;;;;4975969;28;20242;-90
2024/02/03 12:13:32;;;;;;;1.33;0.50;;;11.20;99.90;;;;;;4993045;28;20215;-91
2024/02/03 12:15:58;;;;;;;0.83;0.50;;;11.00;99.90;;;;;;5004407;28;20322;-90
2024/02/03 12:18:28;;;;;;;0.40;0.20;;;11.20;99.90;;;;;;4993654;28;21408;-91
2024/02/03 12:20:55;;;;;;;5.27;1.07;;;11.20;99.90;;;;;;4990986;28;20238;-90
2024/02/03 12:23:23;;;;;;;4.67;1.70;;;11.10;99.90;;;;;;4992737;28;20219;-91
2024/02/03 12:25:49;;;;;;;4.73;1.87;;;11.20;99.90;;;;;;4994065;28;20292;-91
2024/02/03 12:28:19;;;;;;;2.03;1.00;;;11.10;99.90;;;;;;4984886;28;20298;-91
2024/02/03 12:30:54;;;;;;;0.77;0.77;;;11.20;99.90;;;;;;4991119;28;20632;-90
2024/02/03 12:33:20;;;;;;;0.70;0.70;;;11.10;99.90;;;;;;4993140;28;20203;-91
2024/02/03 12:35:46;;;;;;;2.90;1.27;;;11.10;99.90;;;;;;4992328;28;20565;-90
2024/02/03 12:38:12;;;;;;;12.07;2.93;;;11.20;99.90;;;;;;4975295;28;20215;-90
2024/02/03 12:40:38;;;;;;;0.73;0.37;;;11.10;99.90;;;;;;4975810;28;20636;-89
2024/02/03 12:43:04;;;;;;;0.43;0.43;;;11.10;99.90;;;;;;4976574;28;20273;-90
2024/02/03 12:45:30;;;;;;;1.53;1.33;;;11.10;99.90;;;;;;4991623;28;20191;-91
2024/02/03 12:47:56;;;;;;;3.37;2.40;;;11.00;99.90;;;;;;4991446;28;20184;-91